Latest Weather Observations for Mandora

IDW60801

Issued at 8:35 pm WST Wednesday 1 October 2014 (issued every 30 minutes, with the page automatically refreshed every 10 minutes)

About weather observations | Map of weather stations | Latest weather observations for WA | Other Formats
Station Details ID: 004019 Name: MANDORA Lat: -19.74 Lon: 120.84 Height: 7.5 m
Data from the previous 72 hours. | See also: Recent months at Mandora
Date/Time
WST
Temp
°C
App
Temp
°C
Dew
Point
Rel
Hum
%
Delta-T
°C
Wind Press
QNH
hPa
Press
MSL
hPa
Rain
since 9 am
mm
Dir
 
Spd
km/h
Gust
km/h
Spd
kts
Gust
kts
01/08:30pm 23.5 - - - - ENE 9 11 5 6 1011.6 - 0.0
01/08:00pm 23.6 - - - - ENE 9 11 5 6 1011.3 - 0.0
01/07:30pm 24.0 - - - - ENE 7 11 4 6 1010.9 - 0.0
01/07:00pm 24.1 - - - - NE 9 11 5 6 1010.3 - 0.0
01/06:30pm 25.1 - - - - N 11 13 6 7 1009.7 - 0.0
01/06:00pm 26.7 - - - - N 7 11 4 6 1009.6 1009.5 0.0
01/05:30pm 29.1 - - - - WNW 13 19 7 10 1008.9 - 0.0
01/05:00pm 31.3 - - - - WNW 17 22 9 12 1008.6 - 0.0
01/04:30pm 32.2 - - - - WNW 19 28 10 15 1008.3 - 0.0
01/04:00pm 32.9 - - - - NW 20 28 11 15 1008.1 - 0.0
01/03:30pm 33.7 - - - - NW 19 26 10 14 1008.1 - 0.0
01/03:00pm 34.3 - - - - NW 20 30 11 16 1008.1 1008.0 0.0
01/02:30pm 35.3 - - - - NW 19 30 10 16 1008.0 - 0.0
01/02:00pm 35.9 - - - - NNW 19 30 10 16 1008.1 - 0.0
01/01:30pm 36.5 - - - - NNW 19 26 10 14 1008.3 - 0.0
01/01:00pm 37.4 - - - - NNW 19 26 10 14 1008.5 - 0.0
01/12:30pm 37.3 - - - - NNW 19 28 10 15 1008.8 - 0.0
01/12:00pm 40.1 - - - - NE 17 28 9 15 1009.2 1009.1 0.0
01/11:30am 40.3 - - - - E 17 26 9 14 1009.7 - 0.0
01/11:00am 38.9 - - - - E 13 28 7 15 1010.2 - 0.0
01/10:30am 38.9 - - - - E 17 30 9 16 1010.5 - 0.0
01/10:00am 37.7 - - - - E 17 28 9 15 1010.8 - 0.0
01/09:30am 36.7 - - - - E 17 32 9 17 1011.1 - 0.0
01/09:00am 35.7 - - - - E 20 32 11 17 1011.6 1011.5 0.0
01/08:30am 34.4 - - - - ESE 20 32 11 17 1011.3 - 0.0
01/08:00am 32.9 - - - - SE 17 24 9 13 1011.4 - 0.0
01/07:30am 30.8 - - - - S 15 20 8 11 1011.4 - 0.0
01/07:00am 28.1 - - - - S 15 24 8 13 1011.3 - 0.0
01/06:30am 25.5 - - - - S 17 24 9 13 1011.1 - 0.0
01/06:00am 24.3 - - - - S 15 20 8 11 1010.9 1010.8 0.0
01/05:30am 24.0 - - - - S 17 20 9 11 1010.7 - 0.0
01/05:00am 22.6 - - - - SSW 13 20 7 11 1010.5 - 0.0
01/04:30am 21.8 - - - - SSW 13 17 7 9 1010.2 - 0.0
01/04:00am 21.7 - - - - SSW 11 15 6 8 1010.1 - 0.0
01/03:30am 21.7 - - - - SSW 9 13 5 7 1009.9 - 0.0
01/03:00am 22.7 - - - - SW 11 13 6 7 1009.7 1009.6 0.0
01/02:30am 24.3 - - - - SSW 11 15 6 8 1009.7 - 0.0
01/02:00am 25.7 - - - - SSW 15 20 8 11 1009.7 - 0.0
01/01:30am 27.0 - - - - SSW 17 24 9 13 1009.7 - 0.0
01/01:00am 27.0 - - - - SSW 17 24 9 13 1009.8 - 0.0
01/12:30am 26.7 - - - - SW 17 20 9 11 1010.1 - 0.0
01/12:00am 27.1 - - - - SSW 19 24 10 13 1010.4 1010.3 0.0
 
Date/Time
WST
Temp
°C
App
Temp
°C
Dew
Point
Rel
Hum
%
Delta-T
°C
Wind Press
QNH
hPa
Press
MSL
hPa
Rain
since 9 am
mm
Dir
 
Spd
km/h
Gust
km/h
Spd
kts
Gust
kts
30/11:30pm 27.5 - - - - SW 19 28 10 15 1010.4 - 0.0
30/11:00pm 27.4 - - - - SW 19 26 10 14 1010.6 - 0.0
30/10:30pm 28.1 - - - - SW 22 30 12 16 1010.7 - 0.0
30/10:00pm 27.8 - - - - SW 20 28 11 15 1010.8 - 0.0
30/09:30pm 27.6 - - - - SW 17 22 9 12 1011.0 - 0.0
30/09:00pm 27.8 - - - - SW 19 26 10 14 1011.0 1011.0 0.0
30/08:30pm 27.9 - - - - WSW 19 24 10 13 1010.9 - 0.0
30/08:00pm 28.0 - - - - WSW 17 24 9 13 1010.7 - 0.0
30/07:30pm 28.2 - - - - WSW 15 22 8 12 1010.5 - 0.0
30/07:00pm 28.6 - - - - W 17 24 9 13 1010.2 - 0.0
30/06:30pm 28.8 - - - - WSW 17 22 9 12 1009.8 - 0.0
30/06:00pm 29.3 - - - - W 19 26 10 14 1009.5 1009.5 0.0
30/05:30pm 30.7 - - - - W 20 30 11 16 1009.3 - 0.0
30/05:00pm 32.8 - - - - W 24 35 13 19 1008.9 - 0.0
30/04:30pm 34.6 - - - - W 24 33 13 18 1008.6 - 0.0
30/04:00pm 35.3 - - - - W 22 32 12 17 1008.6 - 0.0
30/03:30pm 35.7 - - - - WNW 22 30 12 16 1008.5 - 0.0
30/03:00pm 36.7 - - - - NW 20 30 11 16 1008.5 1008.5 0.0
30/02:30pm 36.9 - - - - WNW 20 26 11 14 1008.6 - 0.0
30/02:00pm 37.2 - - - - WNW 20 26 11 14 1008.7 - 0.0
30/01:30pm 36.7 - - - - NW 19 28 10 15 1009.1 - 0.0
30/01:00pm 36.7 - - - - NW 17 26 9 14 1009.5 - 0.0
30/12:30pm 36.8 - - - - NNW 15 24 8 13 1009.9 - 0.0
30/12:00pm 36.6 - - - - NNW 15 20 8 11 1010.4 1010.4 0.0
30/11:30am 35.5 - - - - NNW 17 24 9 13 1011.0 - 0.0
30/11:00am 36.3 - - - - NNW 11 20 6 11 1011.4 - 0.0
30/10:30am 38.1 - - - - E 11 20 6 11 1011.7 - 0.0
30/10:00am 37.2 - - - - E 13 22 7 12 1011.9 - 0.0
30/09:30am 36.2 - - - - SE 15 24 8 13 1012.2 - 0.0
30/09:00am 35.8 - - - - SSE 11 22 6 12 1012.1 1012.1 0.0
30/08:30am 33.9 - - - - SSE 13 19 7 10 1012.0 - 0.0
30/08:00am 31.9 - - - - S 13 19 7 10 1012.0 - 0.0
30/07:30am 29.7 - - - - S 13 17 7 9 1011.8 - 0.0
30/07:00am 26.8 - - - - SSW 15 22 8 12 1011.5 - 0.0
30/06:30am 23.2 - - - - SSW 13 17 7 9 1011.3 - 0.0
30/06:00am 21.6 - - - - SSW 11 13 6 7 1010.9 1010.9 0.0
30/05:30am 22.9 - - - - SSW 13 17 7 9 1010.7 - 0.0
30/05:00am 23.5 - - - - SSW 15 20 8 11 1010.6 - 0.0
30/04:30am 23.2 - - - - SW 13 19 7 10 1010.5 - 0.0
30/04:00am 22.1 - - - - SW 11 15 6 8 1010.4 - 0.0
30/03:30am 22.1 - - - - SW 15 20 8 11 1010.3 - 0.0
30/03:00am 21.4 - - - - SW 13 15 7 8 1010.4 1010.4 0.0
30/02:30am 21.7 - - - - SSW 15 17 8 9 1010.6 - 0.0
30/02:00am 22.1 - - - - SW 15 19 8 10 1010.6 - 0.0
30/01:30am 22.3 - - - - WSW 15 19 8 10 1010.7 - 0.0
30/01:00am 22.6 - - - - WSW 15 22 8 12 1010.7 - 0.0
30/12:30am 23.1 - - - - WSW 17 24 9 13 1011.1 - 0.0
30/12:00am 23.4 - - - - WSW 15 20 8 11 1011.3 1011.3 0.0
 
Date/Time
WST
Temp
°C
App
Temp
°C
Dew
Point
Rel
Hum
%
Delta-T
°C
Wind Press
QNH
hPa
Press
MSL
hPa
Rain
since 9 am
mm
Dir
 
Spd
km/h
Gust
km/h
Spd
kts
Gust
kts
29/11:30pm 23.8 - - - - SW 17 20 9 11 1011.5 - 0.0
29/11:00pm 23.9 - - - - WSW 17 20 9 11 1011.8 - 0.0
29/10:30pm 24.2 - - - - WSW 17 22 9 12 1011.9 - 0.0
29/10:00pm 24.4 - - - - WSW 17 22 9 12 1012.0 - 0.0
29/09:30pm 24.9 - - - - W 20 28 11 15 1012.2 - 0.0
29/09:00pm 25.2 - - - - W 20 28 11 15 1012.1 1012.1 0.0
29/08:30pm 25.2 - - - - W 20 28 11 15 1011.9 - 0.0
29/08:00pm 25.2 - - - - W 22 32 12 17 1011.7 - 0.0
29/07:30pm 25.1 - - - - W 19 28 10 15 1011.5 - 0.0
29/07:00pm 25.2 - - - - W 19 28 10 15 1011.1 - 0.0
29/06:30pm 25.7 - - - - W 17 24 9 13 1010.7 - 0.0
29/06:00pm 27.0 - - - - W 15 24 8 13 1010.2 1010.2 0.0
29/05:30pm 29.1 - - - - WNW 17 24 9 13 1009.8 - 0.0
29/05:00pm 32.7 - - - - WNW 17 22 9 12 1009.5 - 0.0
29/04:30pm 34.0 - - - - W 20 32 11 17 1009.2 - 0.0
29/04:00pm 34.6 - - - - W 24 33 13 18 1009.0 - 0.0
29/03:30pm 35.4 - - - - W 22 35 12 19 1008.8 - 0.0
29/03:00pm 35.2 - - - - WNW 22 32 12 17 1008.8 1008.8 0.0
29/02:30pm 36.8 - - - - WNW 22 33 12 18 1008.9 - 0.0
29/02:00pm 36.8 - - - - WNW 22 30 12 16 1009.2 - 0.0
29/01:30pm 36.7 - - - - W 20 28 11 15 1009.5 - 0.0
29/01:00pm 35.9 - - - - NW 19 24 10 13 1009.8 - 0.0
29/12:30pm 35.4 - - - - NW 20 28 11 15 1010.2 - 0.0
29/12:00pm 36.1 - - - - NW 17 26 9 14 1010.7 1010.7 0.0
29/11:30am 35.4 - - - - NNW 19 28 10 15 1011.2 - 0.0
29/11:00am 34.6 - - - - NNW 17 28 9 15 1011.6 - 0.0
29/10:30am 35.8 - - - - NW 11 17 6 9 1011.9 - 0.0
29/10:00am 36.5 - - - - S 11 22 6 12 1012.2 - 0.0
29/09:30am 35.5 - - - - S 17 28 9 15 1012.3 - 0.0
29/09:00am 34.6 - - - - SSE 17 28 9 15 1012.4 1012.4 0.0
29/08:30am 33.1 - - - - SSE 15 24 8 13 1012.4 - 0.0
29/08:00am 30.9 - - - - S 13 20 7 11 1012.3 - 0.0
29/07:49am 28.9 - - - - SW 7 19 4 10 1012.3 - 0.0
29/07:30am 23.8 - - - - CALM 0 0 0 0 1012.3 - 0.0
29/07:00am 20.0 - - - - W 2 7 1 4 1012.1 - 0.0
29/06:30am 16.9 - - - - NNW 9 11 5 6 1011.9 - 0.0
29/06:00am 15.0 - - - - WNW 6 7 3 4 1011.5 1011.5 0.0
29/05:30am 15.3 - - - - CALM 0 0 0 0 1011.3 - 0.0
29/05:00am 16.4 - - - - WSW 2 9 1 5 1011.1 - 0.0
29/04:30am 19.2 - - - - W 7 11 4 6 1010.6 - 0.0
29/04:00am 19.8 - - - - WSW 13 15 7 8 1010.4 - 0.0
29/03:30am 19.9 - - - - W 13 15 7 8 1010.3 - 0.0
29/03:00am 21.9 - - - - WSW 11 13 6 7 1010.2 1010.2 0.0
29/02:30am 21.1 - - - - SW 13 19 7 10 1010.2 - 0.0
29/02:00am 19.8 - - - - WSW 13 17 7 9 1010.5 - 0.0
29/01:30am 17.8 - - - - W 11 13 6 7 1010.9 - 0.0
29/01:00am 17.7 - - - - NNW 6 7 3 4 1011.2 - 0.0
29/12:30am 17.9 - - - - CALM 0 7 0 4 1011.4 - 0.0
29/12:00am 19.3 - - - - ESE 2 7 1 4 1011.6 1011.6 0.0
 
Date/Time
WST
Temp
°C
App
Temp
°C
Dew
Point
Rel
Hum
%
Delta-T
°C
Wind Press
QNH
hPa
Press
MSL
hPa
Rain
since 9 am
mm
Dir
 
Spd
km/h
Gust
km/h
Spd
kts
Gust
kts
28/11:30pm 21.9 - - - - SW 11 13 6 7 1011.6 - 0.0
28/11:00pm 22.8 - - - - WSW 13 19 7 10 1012.0 - 0.0
28/10:30pm 23.2 - - - - WSW 15 19 8 10 1012.1 - 0.0
28/10:00pm 23.1 - - - - SW 13 17 7 9 1012.2 - 0.0
28/09:30pm 23.5 - - - - WSW 11 15 6 8 1012.3 - 0.0
28/09:00pm 23.7 - - - - WSW 11 13 6 7 1012.3 1012.3 0.0

Other Formats:

Comma delimited format used in spreadsheet applications
http://www.bom.gov.au/fwo/IDW60801/IDW60801.94200.axf

JavaScript Object Notation format (JSON) in row-major order
http://www.bom.gov.au/fwo/IDW60801/IDW60801.94200.json